createdAt,value
2023-03-03T05:47:35.738Z,1.70
2023-03-03T05:50:04.149Z,1.70
2023-03-03T05:52:32.208Z,1.80
2023-03-03T05:55:00.106Z,1.90
2023-03-03T05:57:27.963Z,2.00
2023-03-03T05:59:55.888Z,2.10
2023-03-03T06:02:23.799Z,2.10
2023-03-03T06:04:53.076Z,2.10
2023-03-03T06:07:20.957Z,2.00
2023-03-03T06:09:48.915Z,2.00
2023-03-03T06:12:17.126Z,1.90
2023-03-03T06:14:45.085Z,1.90
2023-03-03T06:17:13.037Z,1.90
2023-03-03T06:19:41.519Z,1.90
2023-03-03T06:22:11.021Z,1.90
2023-03-03T06:24:39.313Z,1.90
2023-03-03T06:27:07.781Z,1.90
2023-03-03T06:29:35.746Z,2.00
2023-03-03T06:32:03.690Z,1.90
2023-03-03T06:34:31.806Z,1.90
2023-03-03T06:36:59.772Z,1.90
2023-03-03T06:39:29.298Z,1.90
2023-03-03T06:41:57.224Z,1.90
2023-03-03T06:44:27.072Z,1.90
2023-03-03T06:46:57.319Z,2.00
2023-03-03T06:49:25.446Z,2.00
2023-03-03T06:51:53.339Z,2.00
2023-03-03T06:54:27.759Z,2.10
2023-03-03T06:57:02.352Z,2.10
2023-03-03T06:59:30.338Z,2.10
2023-03-03T07:01:58.823Z,2.10
2023-03-03T07:04:30.917Z,2.20
2023-03-03T07:07:01.063Z,2.20
2023-03-03T07:09:30.542Z,2.30
2023-03-03T07:12:03.644Z,2.30
2023-03-03T07:14:31.883Z,2.30
2023-03-03T07:17:02.589Z,2.50
2023-03-03T07:19:35.400Z,2.50
2023-03-03T07:22:13.309Z,2.60
2023-03-03T07:24:42.678Z,2.70
2023-03-03T07:27:18.355Z,2.70
2023-03-03T07:29:48.847Z,2.80
2023-03-03T07:32:36.423Z,2.80
2023-03-03T07:35:23.886Z,2.80
2023-03-03T07:37:51.856Z,2.90
2023-03-03T07:40:35.880Z,3.00
2023-03-03T07:43:28.576Z,3.10
2023-03-03T15:03:00.776Z,7.50
2023-03-03T15:05:30.416Z,7.50
2023-03-03T15:08:09.017Z,7.50
2023-03-03T15:10:38.241Z,7.50
2023-03-03T15:13:35.075Z,7.60
2023-03-03T15:16:12.473Z,7.60
2023-03-03T15:19:21.398Z,7.60
2023-03-03T15:22:00.522Z,7.70
2023-03-03T15:24:39.437Z,7.70
2023-03-03T15:27:13.430Z,7.70
2023-03-03T15:29:52.040Z,7.70
2023-03-03T15:32:24.933Z,7.60
2023-03-03T15:35:00.094Z,7.60
2023-03-03T15:37:40.247Z,7.60
2023-03-03T15:40:22.136Z,7.60
2023-03-03T15:42:53.851Z,7.60
2023-03-03T15:45:28.681Z,7.50
2023-03-03T15:48:16.368Z,7.50
2023-03-03T15:50:56.913Z,7.50
2023-03-03T15:53:47.496Z,7.50
2023-03-03T15:56:24.303Z,7.50
2023-03-03T15:59:42.217Z,7.50
2023-03-03T16:02:20.097Z,7.40
2023-03-03T16:04:56.105Z,7.40
2023-03-03T16:07:37.186Z,7.40
2023-03-03T16:10:16.477Z,7.30
2023-03-03T16:12:54.094Z,7.20
2023-03-03T16:15:35.132Z,7.20
2023-03-03T16:18:12.343Z,7.10
2023-03-03T16:20:50.090Z,7.00
2023-03-03T16:23:32.864Z,7.00
2023-03-03T16:26:11.367Z,7.00
2023-03-03T16:28:57.008Z,7.00
2023-03-03T16:31:30.233Z,6.90
2023-03-03T16:34:08.356Z,6.90
2023-03-03T16:36:47.560Z,6.80
2023-03-03T16:39:25.910Z,6.80
2023-03-03T16:42:01.378Z,6.70
2023-03-03T16:44:40.663Z,6.60
2023-03-03T16:47:20.229Z,6.50
2023-03-03T16:49:57.648Z,6.40
2023-03-03T16:52:32.874Z,6.30
2023-03-03T16:55:10.853Z,6.10
2023-03-03T16:57:48.408Z,6.00
2023-03-03T17:00:21.218Z,5.90
2023-03-03T17:03:15.462Z,5.90
2023-03-03T17:05:51.462Z,5.80
2023-03-03T17:08:40.513Z,5.50
2023-03-03T17:11:20.700Z,5.40
2023-03-03T17:14:13.756Z,5.20
2023-03-03T17:16:52.887Z,5.00
2023-03-03T17:19:31.338Z,4.80
2023-03-03T17:22:12.197Z,4.60
2023-03-03T17:24:49.503Z,4.50
2023-03-03T17:27:26.944Z,4.30
2023-03-03T17:30:07.664Z,4.20
2023-03-03T17:32:54.780Z,4.10
2023-03-03T17:35:34.153Z,4.00
2023-03-03T17:38:11.470Z,4.00
2023-03-03T17:40:50.569Z,3.90
2023-03-03T17:43:24.812Z,3.90
2023-03-03T17:45:56.369Z,3.90
2023-03-03T17:48:53.470Z,3.90
2023-03-03T17:51:46.245Z,3.90
2023-03-03T17:54:35.666Z,3.70
2023-03-03T17:57:16.511Z,3.60
2023-03-03T18:00:03.004Z,3.70
2023-03-03T18:03:04.183Z,3.70
2023-03-03T18:05:50.872Z,3.60
2023-03-03T18:08:54.374Z,3.50
2023-03-03T18:11:40.580Z,3.50
2023-03-03T18:14:35.841Z,3.40
2023-03-03T18:17:36.874Z,3.50
2023-03-03T18:20:44.156Z,3.40
2023-03-03T18:23:31.209Z,3.30
2023-03-03T18:26:00.696Z,3.30
2023-03-03T18:28:46.265Z,3.20
2023-03-03T18:31:24.885Z,3.10
2023-03-03T18:34:09.804Z,3.10
2023-03-03T18:36:40.840Z,3.00
2023-03-03T18:39:15.328Z,3.00
2023-03-03T18:42:06.911Z,3.00
2023-03-03T18:44:35.001Z,3.00
2023-03-03T18:47:03.462Z,3.00
2023-03-03T18:49:55.524Z,2.90
2023-03-03T18:52:27.525Z,2.80
2023-03-03T18:55:23.596Z,2.80
2023-03-03T18:58:28.632Z,2.80
2023-03-03T19:01:00.597Z,2.80
2023-03-03T19:03:33.442Z,2.80
2023-03-03T19:06:03.847Z,2.80
2023-03-03T19:08:46.022Z,2.80
2023-03-03T19:11:37.843Z,2.70
2023-03-03T19:14:30.908Z,2.80
2023-03-03T19:17:00.603Z,2.70
2023-03-03T19:19:34.443Z,2.80
2023-03-03T19:22:25.593Z,2.70
2023-03-03T19:25:15.014Z,2.80
2023-03-03T19:27:46.649Z,2.80
2023-03-03T19:30:37.453Z,2.70
2023-03-03T19:33:25.724Z,2.70
2023-03-03T19:36:07.799Z,2.60
2023-03-03T19:38:45.235Z,2.60
2023-03-03T19:41:34.217Z,2.50
2023-03-03T19:44:12.567Z,2.50
2023-03-03T19:46:56.846Z,2.40
2023-03-03T19:49:39.723Z,2.30
2023-03-03T19:52:17.620Z,2.30
2023-03-03T19:54:59.877Z,2.30
2023-03-03T19:57:41.752Z,2.20
2023-03-03T20:00:20.053Z,2.10
2023-03-03T20:02:59.864Z,2.20
2023-03-03T20:05:37.574Z,2.20
2023-03-03T20:08:15.058Z,2.30
2023-03-03T20:10:51.516Z,2.30
2023-03-03T20:13:34.627Z,2.20
2023-03-03T20:16:14.371Z,2.20
2023-03-03T20:19:01.557Z,2.10
2023-03-03T20:21:35.367Z,2.00
2023-03-03T20:24:36.679Z,2.00
2023-03-03T20:27:10.867Z,2.10
2023-03-03T20:29:54.285Z,2.10
2023-03-03T20:32:32.631Z,2.00
2023-03-03T20:35:11.939Z,2.10
2023-03-03T20:37:50.722Z,2.00
2023-03-03T20:40:30.918Z,2.00
2023-03-03T20:43:11.471Z,2.00
2023-03-03T20:45:49.792Z,2.00
2023-03-03T20:48:32.328Z,1.90
2023-03-03T20:51:06.593Z,1.80
2023-03-03T20:53:45.477Z,1.90
2023-03-03T20:56:17.976Z,1.90
2023-03-03T20:58:59.495Z,1.90
